createdAt,value
2023-04-01T00:01:52.782Z,101464.94
2023-04-01T00:04:56.687Z,101457.88
2023-04-01T00:08:00.685Z,101472.06
2023-04-01T00:11:05.342Z,101479.16
2023-04-01T00:14:09.614Z,101447.31
2023-04-01T00:17:13.840Z,101473.56
2023-04-01T00:20:18.391Z,101411.63
2023-04-01T00:23:23.639Z,101480.78
2023-04-01T00:26:28.455Z,101461.50
2023-04-01T00:29:33.254Z,101471.78
2023-04-01T00:32:37.548Z,101489.19
2023-04-01T00:35:42.176Z,101484.91
2023-04-01T00:38:47.632Z,101489.09
2023-04-01T00:41:51.663Z,101493.22
2023-04-01T00:44:57.088Z,101474.78
2023-04-01T00:48:08.582Z,101458.41
2023-04-01T00:51:15.462Z,101475.06
2023-04-01T00:54:23.126Z,101484.56
2023-04-01T00:57:33.334Z,101477.06
2023-04-01T01:00:38.872Z,101465.31
2023-04-01T01:03:43.152Z,101475.66
2023-04-01T01:07:24.357Z,101463.81
2023-04-01T01:10:37.223Z,101473.13
2023-04-01T01:14:03.426Z,101464.81
2023-04-01T01:17:22.881Z,101462.78
2023-04-01T01:20:45.119Z,101474.38
2023-04-01T01:24:00.298Z,101457.50
2023-04-01T01:27:21.580Z,101464.00
2023-04-01T01:31:01.346Z,101460.47
2023-04-01T01:34:17.633Z,101454.34
2023-04-01T01:37:26.342Z,101443.19
2023-04-01T01:40:33.712Z,101440.03
2023-04-01T01:43:48.309Z,101444.44
2023-04-01T01:46:54.516Z,101447.28
2023-04-01T01:49:59.483Z,101443.63
2023-04-01T01:53:08.868Z,101434.16
2023-04-01T01:56:17.538Z,101430.81
2023-04-01T01:59:24.523Z,101437.47
2023-04-01T02:02:33.344Z,101430.16
2023-04-01T02:05:38.432Z,101431.34
2023-04-01T02:09:05.760Z,101421.59
2023-04-01T02:12:15.446Z,101412.75
2023-04-01T02:15:22.533Z,101415.13
2023-04-01T02:18:37.284Z,101413.53
2023-04-01T02:21:45.222Z,101406.75
2023-04-01T02:24:59.095Z,101412.50
2023-04-01T02:28:28.621Z,101409.53
2023-04-01T02:31:48.853Z,101397.56
2023-04-01T02:38:41.951Z,101396.38
2023-04-01T02:45:45.463Z,101383.59
2023-04-01T02:55:54.029Z,101357.00
2023-04-01T02:59:18.599Z,101369.94
2023-04-01T03:03:03.408Z,101365.16
2023-04-01T03:06:19.219Z,101335.28
2023-04-01T03:09:33.553Z,101349.63
2023-04-01T03:12:45.704Z,101360.63
2023-04-01T03:15:56.570Z,101357.78
2023-04-01T03:19:10.739Z,101348.41
2023-04-01T03:22:22.901Z,101347.00
2023-04-01T03:25:32.691Z,101332.25
2023-04-01T03:28:38.040Z,101325.31
2023-04-01T03:31:42.449Z,101320.38
2023-04-01T03:34:46.873Z,101322.75
2023-04-01T03:37:53.213Z,101304.44
2023-04-01T03:40:57.493Z,101323.25
2023-04-01T03:44:02.083Z,101309.59
2023-04-01T03:47:06.632Z,101309.56
2023-04-01T03:50:12.008Z,101308.63
2023-04-01T03:53:17.150Z,101301.16
2023-04-01T03:56:23.931Z,101295.91
2023-04-01T03:59:28.416Z,101301.25
2023-04-01T04:02:32.853Z,101289.53
2023-04-01T04:05:37.550Z,101287.91
2023-04-01T04:08:42.639Z,101294.03
2023-04-01T04:11:46.988Z,101279.06
2023-04-01T04:14:51.460Z,101255.78
2023-04-01T04:17:55.779Z,101265.28
2023-04-01T04:21:00.486Z,101278.75
2023-04-01T04:24:08.290Z,101259.19
2023-04-01T04:27:45.439Z,101275.09
2023-04-01T04:30:53.489Z,101214.88
2023-04-01T04:33:57.863Z,101265.16
2023-04-01T04:37:03.142Z,101264.25
2023-04-01T04:40:11.575Z,101244.50
2023-04-01T04:43:18.826Z,101252.78
2023-04-01T04:46:26.872Z,101258.91
2023-04-01T04:49:37.917Z,101235.22
2023-04-01T04:52:49.235Z,101196.91
2023-04-01T04:55:54.536Z,101253.63
2023-04-01T04:59:21.831Z,101241.47
2023-04-01T05:02:34.302Z,101232.00
2023-04-01T05:05:39.585Z,101216.50
2023-04-01T05:08:47.777Z,101222.94
2023-04-01T05:11:52.501Z,101220.03
2023-04-01T05:14:58.162Z,101220.75
2023-04-01T05:18:02.558Z,101222.72
2023-04-01T05:21:07.195Z,101225.00
2023-04-01T05:24:11.898Z,101225.38
2023-04-01T05:27:17.550Z,101219.41
2023-04-01T05:30:22.554Z,101210.59
2023-04-01T05:33:39.313Z,101204.44
2023-04-01T05:36:45.214Z,101205.94
2023-04-01T05:39:49.707Z,101206.78
2023-04-01T05:42:54.740Z,101204.22
2023-04-01T05:45:59.547Z,101203.63
2023-04-01T05:49:28.409Z,101191.28
2023-04-01T05:52:33.901Z,101181.03
2023-04-01T05:55:38.660Z,101190.34
2023-04-01T05:58:43.341Z,101182.53
2023-04-01T06:01:48.077Z,101192.06
2023-04-01T06:05:04.477Z,101185.19
2023-04-01T06:08:19.058Z,101181.59
2023-04-01T06:11:56.504Z,101183.69
2023-04-01T06:15:25.054Z,101181.81
2023-04-01T06:18:48.649Z,101155.84
2023-04-01T06:22:02.647Z,101171.25
2023-04-01T06:25:29.650Z,101173.47
2023-04-01T06:28:53.413Z,101175.41
2023-04-01T06:32:08.746Z,101155.69
2023-04-01T06:35:12.936Z,101154.84
2023-04-01T06:38:45.872Z,101163.34
2023-04-01T06:42:02.898Z,101161.44
2023-04-01T06:45:29.809Z,101151.94
2023-04-01T06:49:30.456Z,101146.78
2023-04-01T06:53:22.343Z,101133.91
2023-04-01T06:56:48.906Z,101158.81
2023-04-01T07:00:05.232Z,101151.44
2023-04-01T07:03:34.799Z,101148.34
2023-04-01T07:07:06.531Z,101141.56
2023-04-01T07:10:24.657Z,101128.72
2023-04-01T07:14:05.754Z,101139.72
2023-04-01T07:17:16.137Z,101146.28
2023-04-01T07:20:38.667Z,101140.94
2023-04-01T07:23:47.706Z,101140.31
2023-04-01T07:27:29.799Z,101135.59
2023-04-01T07:30:55.856Z,101140.09
2023-04-01T07:34:12.013Z,101143.09
2023-04-01T07:37:31.467Z,101136.75
2023-04-01T07:40:51.941Z,101135.34
2023-04-01T07:44:15.677Z,101125.59
2023-04-01T07:48:04.379Z,101118.13
2023-04-01T07:51:50.549Z,101143.38
2023-04-01T07:55:00.664Z,101140.31
2023-04-01T07:58:26.776Z,101138.84
2023-04-01T08:01:39.296Z,101136.34
2023-04-01T08:05:07.255Z,101138.94
2023-04-01T08:08:32.958Z,101130.69
2023-04-01T08:12:22.583Z,101117.09
2023-04-01T08:16:03.242Z,101133.47
2023-04-01T08:19:23.157Z,101138.59
2023-04-01T08:22:53.274Z,101146.44
2023-04-01T08:26:14.248Z,101131.81
2023-04-01T08:29:52.197Z,101145.72
2023-04-01T08:33:23.082Z,101139.97
2023-04-01T08:36:38.299Z,101153.44
2023-04-01T08:39:56.664Z,101127.41
2023-04-01T08:43:22.578Z,101148.72
2023-04-01T08:46:41.344Z,101147.00
2023-04-01T08:50:00.605Z,101155.13
2023-04-01T08:53:25.639Z,101168.25
2023-04-01T08:56:42.166Z,101151.44
2023-04-01T09:00:19.237Z,101154.13
2023-04-01T09:04:26.657Z,101167.22
2023-04-01T09:08:07.885Z,101176.84
2023-04-01T09:11:35.720Z,101170.28
2023-04-01T09:15:06.075Z,101175.81
2023-04-01T09:18:38.642Z,101176.25
2023-04-01T09:21:46.652Z,101183.06
2023-04-01T09:25:09.379Z,101183.75
2023-04-01T09:28:23.216Z,101144.44
2023-04-01T09:31:50.946Z,101180.81
2023-04-01T09:35:22.084Z,101188.84
2023-04-01T09:38:44.649Z,101181.69
2023-04-01T09:42:02.347Z,101179.78
2023-04-01T09:45:26.138Z,101176.28
2023-04-01T09:48:39.083Z,101179.88
2023-04-01T09:52:05.696Z,101182.09
2023-04-01T09:55:34.617Z,101192.47
2023-04-01T09:59:08.888Z,101169.09
2023-04-01T10:03:22.301Z,101192.97
2023-04-01T10:06:47.917Z,101193.47
2023-04-01T10:09:55.682Z,101195.44
2023-04-01T10:13:18.598Z,101198.31
2023-04-01T10:16:51.817Z,101197.47
2023-04-01T10:20:22.216Z,101217.75
2023-04-01T10:23:57.319Z,101205.50
2023-04-01T10:27:19.152Z,101207.28
2023-04-01T10:31:04.170Z,101215.25
2023-04-01T10:34:41.379Z,101219.66
2023-04-01T10:37:48.590Z,101222.31
2023-04-01T10:41:24.109Z,101211.78
2023-04-01T10:45:21.607Z,101229.38
2023-04-01T10:48:57.125Z,101231.97
2023-04-01T10:52:25.945Z,101227.59
2023-04-01T10:56:14.002Z,101230.03
2023-04-01T10:59:54.619Z,101248.53
2023-04-01T11:03:20.259Z,101237.03
2023-04-01T11:07:23.125Z,101242.19
2023-04-01T11:10:52.866Z,101246.44
2023-04-01T11:14:17.259Z,101252.59
2023-04-01T11:17:28.957Z,101249.88
2023-04-01T11:20:54.457Z,101255.06
2023-04-01T11:24:15.213Z,101260.25
2023-04-01T11:27:53.831Z,101260.16
2023-04-01T11:31:19.395Z,101261.06
2023-04-01T11:34:42.607Z,101265.25
2023-04-01T11:38:16.868Z,101263.47
2023-04-01T11:41:59.546Z,101270.72
2023-04-01T11:45:42.162Z,101252.28
2023-04-01T11:49:19.533Z,101270.69
2023-04-01T11:53:09.221Z,101282.63
2023-04-01T11:56:36.408Z,101283.13
2023-04-01T12:00:01.427Z,101283.06
2023-04-01T12:03:35.913Z,101281.59
2023-04-01T12:06:43.394Z,101278.06
2023-04-01T12:09:52.237Z,101261.88
2023-04-01T12:13:08.039Z,101272.69
2023-04-01T12:16:47.034Z,101273.50
2023-04-01T12:20:06.158Z,101273.94
2023-04-01T12:24:03.149Z,101269.13
2023-04-01T12:27:22.720Z,101257.34
2023-04-01T12:30:57.833Z,101266.28
2023-04-01T12:34:23.005Z,101266.97
2023-04-01T12:37:39.266Z,101270.41
2023-04-01T12:41:05.484Z,101272.88
2023-04-01T12:44:32.138Z,101272.91
2023-04-01T12:47:48.254Z,101284.06
2023-04-01T12:51:07.687Z,101284.47
2023-04-01T12:54:29.867Z,101280.06
2023-04-01T12:57:52.760Z,101282.69
2023-04-01T13:01:41.437Z,101277.50
2023-04-01T13:05:04.006Z,101277.78
2023-04-01T13:08:12.557Z,101263.47
2023-04-01T13:11:34.458Z,101227.75
2023-04-01T13:14:58.794Z,101283.22
2023-04-01T13:18:26.755Z,101269.78
2023-04-01T13:21:43.490Z,101274.81
2023-04-01T13:25:26.719Z,101281.16
2023-04-01T13:28:41.407Z,101283.03
2023-04-01T13:32:04.681Z,101292.66
2023-04-01T13:35:14.823Z,101293.97
2023-04-01T13:38:40.343Z,101311.19
2023-04-01T13:42:06.829Z,101309.34
2023-04-01T13:45:28.111Z,101286.88
2023-04-01T13:48:58.273Z,101310.06
2023-04-01T13:52:05.220Z,101303.47
2023-04-01T13:55:37.320Z,101308.06
2023-04-01T13:58:54.722Z,101257.13
2023-04-01T14:02:35.738Z,101298.44
2023-04-01T14:06:08.665Z,101300.56
2023-04-01T14:09:43.296Z,101305.44
2023-04-01T14:12:53.419Z,101313.72
2023-04-01T14:16:32.855Z,101305.78
2023-04-01T14:19:52.531Z,101310.34
2023-04-01T14:23:30.519Z,101303.88
2023-04-01T14:27:00.300Z,101312.81
2023-04-01T14:30:25.950Z,101319.88
2023-04-01T14:34:32.070Z,101327.72
2023-04-01T14:37:59.393Z,101319.53
2023-04-01T14:41:12.385Z,101329.09
2023-04-01T14:44:53.783Z,101319.34
2023-04-01T14:48:10.052Z,101328.06
2023-04-01T14:51:42.714Z,101321.69
2023-04-01T14:54:50.380Z,101315.75
2023-04-01T14:58:13.962Z,101256.44
2023-04-01T15:01:33.827Z,101325.38
2023-04-01T15:04:58.344Z,101334.75
2023-04-01T15:08:29.861Z,101333.66
2023-04-01T15:11:53.617Z,101332.72
2023-04-01T15:15:19.288Z,101337.88
2023-04-01T15:18:29.535Z,101339.75
2023-04-01T15:21:58.319Z,101346.50
2023-04-01T15:25:08.580Z,101353.38
2023-04-01T15:28:27.868Z,101351.47
2023-04-01T15:31:46.425Z,101358.38
2023-04-01T15:35:17.004Z,101352.31
2023-04-01T15:38:39.540Z,101358.72
2023-04-01T15:41:54.794Z,101354.44
2023-04-01T15:45:19.797Z,101355.44
2023-04-01T15:48:41.851Z,101348.06
2023-04-01T15:51:58.590Z,101358.66
2023-04-01T15:55:17.548Z,101360.88
2023-04-01T15:58:38.828Z,101360.72
2023-04-01T16:02:15.555Z,101361.31
2023-04-01T16:05:25.356Z,101360.50
2023-04-01T16:08:44.433Z,101365.38
2023-04-01T16:12:03.547Z,101367.00
2023-04-01T16:15:24.492Z,101376.34
2023-04-01T16:18:54.504Z,101359.31
2023-04-01T16:22:09.519Z,101367.19
2023-04-01T16:25:39.504Z,101358.72
2023-04-01T16:29:01.295Z,101362.59
2023-04-01T16:32:28.624Z,101356.72
2023-04-01T16:35:47.153Z,101335.72
2023-04-01T16:39:13.324Z,101338.47
2023-04-01T16:42:33.509Z,101351.81
2023-04-01T16:45:45.995Z,101360.75
2023-04-01T16:49:11.219Z,101365.25
2023-04-01T16:52:18.418Z,101367.06
2023-04-01T16:55:26.689Z,101339.81
2023-04-01T16:58:37.729Z,101358.50
2023-04-01T17:02:08.950Z,101358.56
2023-04-01T17:05:16.379Z,101346.25
2023-04-01T17:08:46.539Z,101364.81
2023-04-01T17:12:08.389Z,101371.88
2023-04-01T17:15:31.280Z,101390.25
2023-04-01T17:19:00.926Z,101369.09
2023-04-01T17:22:34.642Z,101393.66
2023-04-01T17:26:09.193Z,101397.72
2023-04-01T17:29:31.948Z,101392.88
2023-04-01T17:33:00.995Z,101406.19
2023-04-01T17:36:31.372Z,101395.97
2023-04-01T17:40:14.655Z,101401.09
2023-04-01T17:43:45.306Z,101411.16
2023-04-01T17:47:09.168Z,101411.84
2023-04-01T17:50:23.253Z,101404.84
2023-04-01T17:53:39.912Z,101412.00
2023-04-01T17:57:04.892Z,101404.44
2023-04-01T18:00:15.037Z,101393.09
2023-04-01T18:03:50.024Z,101401.31
2023-04-01T18:06:57.683Z,101395.28
2023-04-01T18:10:25.914Z,101392.56
2023-04-01T18:13:45.226Z,101379.81
2023-04-01T18:16:58.174Z,101388.72
2023-04-01T18:20:21.325Z,101383.53
2023-04-01T18:23:32.065Z,101385.19
2023-04-01T18:26:42.999Z,101385.13
2023-04-01T18:30:11.626Z,101386.03
2023-04-01T18:33:27.270Z,101400.13
2023-04-01T18:36:53.942Z,101389.47
2023-04-01T18:40:14.598Z,101399.94
2023-04-01T18:43:19.017Z,101393.78
2023-04-01T18:46:47.470Z,101401.22
2023-04-01T18:50:28.738Z,101410.59
2023-04-01T18:53:48.968Z,101419.38
2023-04-01T18:56:53.348Z,101417.66
2023-04-01T18:59:59.908Z,101434.72
2023-04-01T19:03:15.193Z,101429.16
2023-04-01T19:06:37.191Z,101439.63
2023-04-01T19:09:49.972Z,101440.56
2023-04-01T19:13:02.219Z,101442.25
2023-04-01T19:16:45.666Z,101443.09
2023-04-01T19:19:54.587Z,101454.50
2023-04-01T19:23:14.074Z,101468.53
2023-04-01T19:26:56.601Z,101462.47
2023-04-01T19:30:38.581Z,101463.25
2023-04-01T19:34:09.992Z,101481.53
2023-04-01T19:37:22.955Z,101483.16
2023-04-01T19:40:49.088Z,101486.88
2023-04-01T19:43:56.736Z,101497.34
2023-04-01T19:47:35.050Z,101482.19
2023-04-01T19:51:02.273Z,101504.06
2023-04-01T19:54:29.332Z,101508.78
2023-04-01T19:58:20.270Z,101510.38
2023-04-01T20:01:55.321Z,101508.31
2023-04-01T20:05:07.169Z,101466.63
2023-04-01T20:08:38.660Z,101508.31
2023-04-01T20:12:18.055Z,101480.81
2023-04-01T20:15:40.560Z,101503.84
2023-04-01T20:18:54.371Z,101504.72
2023-04-01T20:22:04.773Z,101505.50
2023-04-01T20:25:33.915Z,101490.47
2023-04-01T20:29:04.349Z,101498.41
2023-04-01T20:32:26.247Z,101465.66
2023-04-01T20:35:48.430Z,101517.00
2023-04-01T20:38:55.828Z,101511.63
2023-04-01T20:42:33.439Z,101527.38
2023-04-01T20:45:42.936Z,101533.53
2023-04-01T20:49:13.136Z,101534.41
2023-04-01T20:52:18.026Z,101548.59
2023-04-01T20:55:49.795Z,101539.50
2023-04-01T20:59:25.809Z,101550.75
2023-04-01T21:02:58.644Z,101551.78
2023-04-01T21:06:06.390Z,101556.78
2023-04-01T21:09:42.558Z,101558.69
2023-04-01T21:13:01.839Z,101565.91
2023-04-01T21:16:28.714Z,101556.06
2023-04-01T21:19:42.687Z,101569.25
2023-04-01T21:23:08.209Z,101571.94
2023-04-01T21:26:33.086Z,101582.75
2023-04-01T21:29:43.054Z,101569.81
2023-04-01T21:33:17.943Z,101570.66
2023-04-01T21:36:40.962Z,101574.84
2023-04-01T21:40:13.933Z,101566.19
2023-04-01T21:43:18.147Z,101577.91
2023-04-01T21:46:31.159Z,101583.31
2023-04-01T21:49:44.746Z,101580.81
2023-04-01T21:53:26.022Z,101582.59
2023-04-01T21:56:53.985Z,101575.81
2023-04-01T22:00:22.061Z,101592.75
2023-04-01T22:03:37.664Z,101584.84
2023-04-01T22:07:12.182Z,101589.47
2023-04-01T22:10:38.250Z,101578.91
2023-04-01T22:14:02.580Z,101594.88
2023-04-01T22:17:32.771Z,101586.13
2023-04-01T22:20:46.950Z,101595.88
2023-04-01T22:24:17.203Z,101609.13
2023-04-01T22:27:50.385Z,101603.88
2023-04-01T22:31:02.521Z,101603.00
2023-04-01T22:34:29.201Z,101597.69
2023-04-01T22:38:04.664Z,101595.94
2023-04-01T22:41:30.437Z,101574.78
2023-04-01T22:45:03.219Z,101572.16
2023-04-01T22:48:40.294Z,101561.56
2023-04-01T22:52:19.780Z,101578.28
2023-04-01T22:55:37.881Z,101383.41
2023-04-01T22:59:08.401Z,101576.50
2023-04-01T23:02:34.112Z,101578.31
2023-04-01T23:05:56.494Z,101567.69
2023-04-01T23:09:11.045Z,101578.31
2023-04-01T23:12:18.967Z,101581.84
2023-04-01T23:15:23.844Z,101561.56
2023-04-01T23:18:36.752Z,101575.63
2023-04-01T23:21:47.072Z,101581.84
2023-04-01T23:25:15.659Z,101592.41
2023-04-01T23:28:41.378Z,101597.75
2023-04-01T23:31:49.684Z,101589.78
2023-04-01T23:35:00.440Z,101554.50
2023-04-01T23:38:04.746Z,101599.47
2023-04-01T23:41:18.936Z,101566.84
2023-04-01T23:44:26.772Z,101583.63
2023-04-01T23:47:37.762Z,101595.91
2023-04-01T23:50:42.720Z,101593.19
2023-04-01T23:53:49.807Z,101577.31
2023-04-01T23:56:57.491Z,101592.31
